Rechercher aéroport 
image banner adimage banner adimage banner ad
image banner ad

35TT - Blackwater

Situé à Temecula, United States

ICAO - 35TT, IATA -

Données fournies par Airmate  

Information générale

Coordonnées: N32°28'25" W97°30'6"
Élévation : 978 feet MSL.
 
Voir autres Aéroports à California

Données opérationnelles

Special qualification required
Heure actuelle UTC:
Heure actuelle locale:
Météo à : KCPT - Cleburne Rgnl ( 15 km )
METAR: KCPT 020515Z AUTO 00000KT 10SM OVC005 23/23 A3007 RMK A01
Voir NOTAMs / SUP AIP / TFR affectant cet aéroport [VIEW]
Fréquences de communication: [VIEW]

Pistes:

Identifiant RWYQFULongueur (ft)Largeur (ft)SurfaceLDA (ft)
17211035GRASS
35211035GRASS

Coordonnées de l'aéroport

Adresse: Temecula United States

Vue satellite de 35TT